createdAt,value
2023-03-22T00:01:10.469Z,23.18
2023-03-22T00:06:13.898Z,23.06
2023-03-22T00:11:18.992Z,23.03
2023-03-22T00:16:22.291Z,23.01
2023-03-22T00:21:25.153Z,23.07
2023-03-22T00:26:29.299Z,23.04
2023-03-22T00:31:32.076Z,23.04
2023-03-22T00:36:37.812Z,23.07
2023-03-22T00:41:42.910Z,23.02
2023-03-22T00:46:45.872Z,23.03
2023-03-22T00:51:48.780Z,22.99
2023-03-22T00:56:53.389Z,22.97
2023-03-22T01:01:56.649Z,22.93
2023-03-22T01:07:02.079Z,22.89
2023-03-22T01:12:06.893Z,22.85
2023-03-22T01:17:10.427Z,22.80
2023-03-22T01:22:13.191Z,22.75
2023-03-22T01:27:17.938Z,22.69
2023-03-22T01:32:20.761Z,22.67
2023-03-22T01:37:25.453Z,22.63
2023-03-22T01:42:30.448Z,22.57
2023-03-22T01:47:36.357Z,22.53
2023-03-22T01:52:39.745Z,22.47
2023-03-22T01:57:55.715Z,22.45
2023-03-22T02:03:15.989Z,22.43
2023-03-22T02:08:22.048Z,22.39
2023-03-22T02:13:47.951Z,22.37
2023-03-22T02:19:34.423Z,22.35
2023-03-22T02:25:08.655Z,22.31
2023-03-22T02:30:37.384Z,22.29
2023-03-22T02:35:53.174Z,22.26
2023-03-22T02:41:08.130Z,22.23
2023-03-22T02:46:17.519Z,22.21
2023-03-22T02:51:24.106Z,22.17
2023-03-22T02:56:32.292Z,22.13
2023-03-22T03:01:40.714Z,22.11
2023-03-22T03:06:49.947Z,22.08
2023-03-22T03:11:55.085Z,22.06
2023-03-22T03:17:12.143Z,22.03
2023-03-22T03:22:33.851Z,22.00
2023-03-22T03:27:44.097Z,21.97
2023-03-22T03:32:53.490Z,21.84
2023-03-22T03:38:02.550Z,21.91
2023-03-22T03:43:07.975Z,21.91
2023-03-22T03:48:17.824Z,21.87
2023-03-22T03:53:20.611Z,21.85
2023-03-22T03:58:24.781Z,21.81
2023-03-22T04:03:27.695Z,21.78
2023-03-22T04:08:53.805Z,21.76
2023-03-22T04:14:02.182Z,21.73
2023-03-22T04:19:04.959Z,21.70
2023-03-22T04:24:08.671Z,21.73
2023-03-22T04:29:16.525Z,21.72
2023-03-22T04:34:24.334Z,21.67
2023-03-22T04:39:31.112Z,21.66
2023-03-22T04:44:49.573Z,21.63
2023-03-22T04:49:53.033Z,21.61
2023-03-22T04:54:55.843Z,21.57
2023-03-22T05:00:00.405Z,21.57
2023-03-22T05:05:03.788Z,21.56
2023-03-22T05:10:11.957Z,21.53
2023-03-22T05:15:17.412Z,21.51
2023-03-22T05:20:20.919Z,21.48
2023-03-22T05:25:34.363Z,21.47
2023-03-22T05:30:39.142Z,21.45
2023-03-22T05:35:59.553Z,21.44
2023-03-22T05:41:06.299Z,21.42
2023-03-22T05:46:13.358Z,21.42
2023-03-22T05:51:25.737Z,21.40
2023-03-22T05:56:29.730Z,21.39
2023-03-22T06:01:42.049Z,21.39
2023-03-22T06:06:53.838Z,21.39
2023-03-22T06:12:09.700Z,21.37
2023-03-22T06:17:14.256Z,21.35
2023-03-22T06:22:17.802Z,21.35
2023-03-22T06:27:21.816Z,21.35
2023-03-22T06:32:26.731Z,21.34
2023-03-22T06:37:30.414Z,21.33
2023-03-22T06:42:34.220Z,21.32
2023-03-22T06:47:46.304Z,21.32
2023-03-22T06:52:59.904Z,21.31
2023-03-22T06:58:03.375Z,21.31
2023-03-22T07:03:07.565Z,21.32
2023-03-22T07:08:23.235Z,21.31
2023-03-22T07:13:27.001Z,21.32
2023-03-22T07:18:36.942Z,21.31
2023-03-22T07:23:40.686Z,21.32
2023-03-22T07:28:47.577Z,21.32
2023-03-22T07:33:53.096Z,21.33
2023-03-22T07:38:59.920Z,21.35
2023-03-22T07:44:17.699Z,19.79
2023-03-22T07:49:37.763Z,18.60
2023-03-22T07:54:45.583Z,18.88
2023-03-22T07:59:48.916Z,18.05
2023-03-22T08:04:56.464Z,16.99
2023-03-22T08:10:25.787Z,18.18
2023-03-22T08:15:30.548Z,19.17
2023-03-22T08:20:35.742Z,19.66
2023-03-22T08:25:44.081Z,19.96
2023-03-22T08:30:49.868Z,20.16
2023-03-22T08:36:04.616Z,20.32
2023-03-22T08:41:07.946Z,20.45
2023-03-22T08:46:10.866Z,20.52
2023-03-22T08:51:17.103Z,20.60
2023-03-22T08:56:38.044Z,20.65
2023-03-22T09:01:53.442Z,20.71
2023-03-22T09:06:57.730Z,20.74
2023-03-22T09:12:00.903Z,20.79
2023-03-22T09:17:03.905Z,20.81
2023-03-22T09:22:08.665Z,20.49
2023-03-22T09:27:19.011Z,20.72
2023-03-22T09:32:21.939Z,20.81
2023-03-22T09:37:32.703Z,20.85
2023-03-22T09:42:40.909Z,20.89
2023-03-22T09:47:48.713Z,20.93
2023-03-22T09:52:54.461Z,20.96
2023-03-22T09:58:07.482Z,20.70
2023-03-22T10:03:22.134Z,20.59
2023-03-22T10:08:37.638Z,20.46
2023-03-22T10:13:46.672Z,20.46
2023-03-22T10:18:53.312Z,20.35
2023-03-22T10:24:08.321Z,20.12
2023-03-22T10:29:20.429Z,20.12
2023-03-22T10:34:27.958Z,20.10
2023-03-22T10:39:38.357Z,20.08
2023-03-22T10:44:48.764Z,20.10
2023-03-22T10:49:55.098Z,20.15
2023-03-22T10:55:03.802Z,20.27
2023-03-22T11:00:11.651Z,20.24
2023-03-22T11:05:22.987Z,20.26
2023-03-22T11:10:32.579Z,20.17
2023-03-22T11:15:38.666Z,20.15
2023-03-22T11:20:43.849Z,20.10
2023-03-22T11:25:50.635Z,20.21
2023-03-22T11:31:03.786Z,20.33
2023-03-22T11:36:18.153Z,20.25
2023-03-22T11:41:25.859Z,20.17
2023-03-22T11:46:30.429Z,20.17
2023-03-22T11:51:36.067Z,20.11
2023-03-22T11:56:45.970Z,20.22
2023-03-22T12:01:53.595Z,19.99
2023-03-22T12:07:00.937Z,20.29
2023-03-22T12:12:07.711Z,20.31
2023-03-22T12:17:16.675Z,20.34
2023-03-22T12:22:22.531Z,20.35
2023-03-22T12:27:31.957Z,20.31
2023-03-22T12:32:41.818Z,20.21
2023-03-22T12:37:48.151Z,20.39
2023-03-22T12:43:00.515Z,20.23
2023-03-22T12:48:11.314Z,20.34
2023-03-22T12:53:16.768Z,20.48
2023-03-22T12:58:23.717Z,20.53
2023-03-22T13:03:29.630Z,20.73
2023-03-22T13:09:05.290Z,20.76
2023-03-22T13:14:13.786Z,20.84
2023-03-22T13:19:33.485Z,21.00
2023-03-22T13:25:00.629Z,20.98
2023-03-22T13:30:10.460Z,21.02
2023-03-22T13:35:23.664Z,20.88
2023-03-22T13:40:38.188Z,20.89
2023-03-22T13:46:03.657Z,20.73
2023-03-22T13:51:12.629Z,20.82
2023-03-22T13:56:33.636Z,20.77
2023-03-22T14:01:48.753Z,20.96
2023-03-22T14:06:58.947Z,21.21
2023-03-22T14:12:09.269Z,21.40
2023-03-22T14:17:32.447Z,21.39
